Details From MKJS - Montego Bay Sangster Intl
To TGPY - Point Salines Intl
Flight Number -
Tags Generated
Created
Modified
Stats Distance 1,012 nm / 1,874 km
Max Altitude 0 ft / 0 m
Waypoints 3
Social Downloads 1
Likes 0
Share VATSIM

Download

Looking for another format? Having issues loading an existing format? Contact us
Advertisement - Login to hide

Notes

Generated

Route

MKJS GND08 TGPY

ID Type Via Altitude Latitude Longitude Leg Dist Tot Dist Heading (true) Name
O MKJS APT - 0 ft / 0 m 18.49873˚ -77.92482˚ - 0 nm - -
GND08 FIX - 0 ft / 0 m 12.00243˚ -61.79901˚ 1011 nm 1011 nm 110° / 115° -
O TGPY APT - 0 ft / 0 m 12.00430˚ -61.79881˚ 0 nm 1011 nm 6° / 6° -

Altitude Profile

Advertisement - Login to hide

Weather


0- 5 10 15 20 25 30 35+ Temperature / ° C

Clouds and Precipitation
Forecast for 2017-12-16 18:00 UTC. Updated 2 hours ago

Ground ~20,000 ft ~40,000 ft Winds

MKJS

Details ICAO MKJS (MBJ)
Name Sangster Intl
Region Jamaica
Timezone America/Jamaica (UTC-5.0)
Stats Elevation 6 ft / 2 m (AMSL)
Location 18.503549° -77.913698°
Runways 1
Magnetic Variation 6.956° W

METAR

MKJS 161500Z 11012KT 9999 FEW024 29/24 Q1018

Decode

TAF

Not found

Departure Runways

ID Width Length Bearing (true) Bearing (mag) Surface Threshold Offset Overrun Length
07 161 ft / 49 m 8,495 ft / 2,589 m 65.37° 72.33° Asphalt 220 ft / 67 m 312 ft / 95 m
25 161 ft / 49 m 8,495 ft / 2,589 m 245.37° 252.33° Asphalt 577 ft / 176 m 200 ft / 61 m

TGPY

Details ICAO TGPY (GND)
Name Grenada/Bishop International
Region Grenada
Timezone America/Grenada (UTC-4.0)
Stats Elevation 41 ft / 12 m (AMSL)
Location 12.004247° -61.786192°
Runways 1
Magnetic Variation 14.799° W

METAR

TGPY 161400Z 06009KT 9999 SCT017TCU 28/25 Q1016 NOSIG TCU-S/ ADJ SHRA-S

Decode

TAF

Not found

Destination Runways

ID Width Length Bearing (true) Bearing (mag) Surface Threshold Offset Overrun Length
10 148 ft / 45 m 9,012 ft / 2,747 m 90.26° 105.06° Asphalt 0 ft / 0 m 0 ft / 0 m
28 148 ft / 45 m 9,012 ft / 2,747 m 270.26° 285.06° Asphalt 0 ft / 0 m 0 ft / 0 m

Popular Alternatives